Time;durP1;ratioP1;P1;durP2;ratioP2;P2;SDS_P1;SDS_P2;PMS_P1;PMS_P2;Temp;Humidity;BMP_temperature;BMP_pressure;BME280_temperature;BME280_humidity;BME280_pressure;Samples;Min_cycle;Max_cycle;Signal;HPM_P1;HPM_P2
2024/01/11 00:00:04;;;;;;;42.17;20.70;;;;;;;-4.79;100.00;99149.28;5055606;28;20214;-80
2024/01/11 00:02:31;;;;;;;38.53;19.53;;;;;;;-4.86;100.00;99148.38;5055425;28;20233;-81
2024/01/11 00:04:57;;;;;;;39.27;19.43;;;;;;;-4.91;100.00;99146.59;5054971;28;20217;-81
2024/01/11 00:07:24;;;;;;;37.23;20.47;;;;;;;-4.93;100.00;99140.59;5054628;28;20220;-82
2024/01/11 00:09:50;;;;;;;38.43;20.97;;;;;;;-4.92;100.00;99142.31;5054741;28;20206;-81
2024/01/11 00:12:17;;;;;;;34.67;17.73;;;;;;;-4.95;100.00;99142.31;5054614;28;20231;-79
2024/01/11 00:14:44;;;;;;;35.37;18.93;;;;;;;-5.02;100.00;99150.84;5055667;28;20213;-80
2024/01/11 00:17:10;;;;;;;34.90;19.77;;;;;;;-5.04;100.00;99148.25;5054791;28;20215;-80
2024/01/11 00:19:37;;;;;;;39.70;20.10;;;;;;;-4.97;100.00;99151.72;5055567;28;20217;-80
2024/01/11 00:22:03;;;;;;;39.70;20.27;;;;;;;-4.98;100.00;99148.28;5055318;28;20232;-80
2024/01/11 00:24:30;;;;;;;41.50;20.87;;;;;;;-5.00;100.00;99149.13;5055244;28;20593;-82
2024/01/11 00:26:56;;;;;;;41.80;20.43;;;;;;;-4.92;100.00;99148.34;5055435;28;20230;-82
2024/01/11 00:29:23;;;;;;;37.07;19.80;;;;;;;-4.86;100.00;99147.50;5055330;28;20561;-82
2024/01/11 00:31:51;;;;;;;39.07;19.80;;;;;;;-4.92;100.00;99142.31;5054408;28;20236;-82
2024/01/11 00:34:17;;;;;;;37.90;19.33;;;;;;;-4.99;100.00;99150.84;5055575;28;20681;-80
2024/01/11 00:36:44;;;;;;;38.10;18.70;;;;;;;-5.04;100.00;99147.38;5055537;28;20215;-81
2024/01/11 00:39:11;;;;;;;34.40;18.27;;;;;;;-5.09;100.00;99156.78;5055660;28;20298;-81
2024/01/11 00:41:38;;;;;;;36.67;20.20;;;;;;;-5.10;100.00;99155.06;5055183;28;20232;-82
2024/01/11 00:44:04;;;;;;;41.83;21.00;;;;;;;-4.95;100.00;99157.75;5055719;28;20611;-82
2024/01/11 00:46:31;;;;;;;36.87;19.17;;;;;;;-4.96;100.00;99153.47;5055341;28;20211;-82
2024/01/11 00:48:58;;;;;;;35.73;18.07;;;;;;;-5.00;100.00;99155.13;5054976;28;20229;-81
2024/01/11 00:51:25;;;;;;;38.60;20.07;;;;;;;-5.08;100.00;99150.78;5055273;28;20738;-81
2024/01/11 00:53:51;;;;;;;38.87;19.77;;;;;;;-5.12;100.00;99151.59;5055138;28;20200;-81
2024/01/11 00:56:18;;;;;;;35.17;19.00;;;;;;;-5.14;100.00;99150.75;5055808;28;20207;-82
2024/01/11 00:58:45;;;;;;;38.10;19.73;;;;;;;-4.95;100.00;99153.44;5058030;28;20218;-82
2024/01/11 01:01:12;;;;;;;40.60;20.00;;;;;;;-5.02;100.00;99156.00;5054931;28;20245;-81
2024/01/11 01:03:38;;;;;;;39.07;19.60;;;;;;;-5.07;100.00;99163.66;5062727;28;20226;-79
2024/01/11 01:06:06;;;;;;;36.13;19.93;;;;;;;-5.08;100.00;99150.78;5063012;28;20213;-79
2024/01/11 01:08:33;;;;;;;38.33;19.07;;;;;;;-5.07;100.00;99160.25;5062718;28;20560;-79
2024/01/11 01:11:00;;;;;;;37.93;19.17;;;;;;;-5.12;100.00;99149.91;5063497;28;20228;-81
2024/01/11 01:13:26;;;;;;;34.97;18.77;;;;;;;-5.11;100.00;99145.59;5066124;28;20254;-81
2024/01/11 01:15:53;;;;;;;37.67;19.40;;;;;;;-5.13;100.00;99152.47;5066265;28;20210;-80
2024/01/11 01:18:19;;;;;;;33.57;18.77;;;;;;;-5.17;100.00;99156.72;5064618;28;20566;-80
2024/01/11 01:20:46;;;;;;;32.90;18.83;;;;;;;-5.19;100.00;99154.97;5063891;28;20202;-80
2024/01/11 01:23:13;;;;;;;39.33;19.43;;;;;;;-5.18;100.00;99143.81;5067161;28;20314;-80
2024/01/11 01:25:40;;;;;;;33.13;17.87;;;;;;;-5.20;100.00;99148.13;5067757;28;20403;-79
2024/01/11 01:28:06;;;;;;;41.33;20.00;;;;;;;-5.12;100.00;99155.06;5064648;28;20211;-82
2024/01/11 01:30:33;;;;;;;33.10;17.67;;;;;;;-5.17;100.00;99161.00;5065473;28;20205;-80
2024/01/11 01:33:00;;;;;;;34.10;18.30;;;;;;;-5.09;100.00;99164.50;5068472;28;20337;-80
2024/01/11 01:35:26;;;;;;;34.90;19.13;;;;;;;-5.11;100.00;99166.22;5068421;28;20211;-80
2024/01/11 01:37:52;;;;;;;36.83;19.33;;;;;;;-5.13;100.00;99165.34;5067295;28;20607;-80
2024/01/11 01:40:20;;;;;;;36.07;19.00;;;;;;;-4.95;100.00;99173.22;5068404;28;20205;-80
2024/01/11 01:42:47;;;;;;;41.83;19.17;;;;;;;-4.98;100.00;99178.34;5066475;28;20226;-79
2024/01/11 01:45:15;;;;;;;42.27;19.83;;;;;;;-5.09;100.00;99185.13;5067106;28;20210;-79
2024/01/11 01:47:44;;;;;;;34.60;19.13;;;;;;;-5.12;100.00;99185.97;5067372;28;20230;-80
2024/01/11 01:50:12;;;;;;;38.57;18.70;;;;;;;-5.19;100.00;99189.31;5066518;28;20210;-80
2024/01/11 01:52:41;;;;;;;37.10;19.00;;;;;;;-5.26;100.00;99192.69;5067917;28;20304;-80
2024/01/11 01:55:11;;;;;;;35.40;18.37;;;;;;;-5.25;100.00;99186.69;5075401;28;20212;-79
2024/01/11 01:57:42;;;;;;;32.87;17.67;;;;;;;-5.42;100.00;99189.97;5075358;28;20224;-80
2024/01/11 02:00:11;;;;;;;33.30;17.47;;;;;;;-5.61;100.00;99193.19;5076175;28;20220;-80
2024/01/11 02:02:39;;;;;;;34.10;17.90;;;;;;;-5.69;100.00;99184.53;5077309;28;20261;-79
2024/01/11 02:05:07;;;;;;;36.07;18.83;;;;;;;-5.80;100.00;99186.16;5077910;28;20208;-80
2024/01/11 02:07:34;;;;;;;34.47;18.00;;;;;;;-5.75;100.00;99192.19;5077680;28;20209;-80
2024/01/11 02:10:01;;;;;;;32.63;17.47;;;;;;;-5.75;100.00;99189.63;5078080;28;20213;-82
2024/01/11 02:12:27;;;;;;;34.40;18.37;;;;;;;-5.81;100.00;99185.28;5077420;28;20229;-80
2024/01/11 02:14:55;;;;;;;32.30;16.80;;;;;;;-5.77;100.00;99187.03;5077215;28;20216;-80
2024/01/11 02:17:22;;;;;;;32.10;18.13;;;;;;;-5.71;100.00;99186.22;5076971;28;20205;-80
2024/01/11 02:19:48;;;;;;;42.20;20.07;;;;;;;-5.75;100.00;99192.19;5076228;28;20210;-81
2024/01/11 02:22:22;;;;;;;37.97;18.23;;;;;;;-5.74;100.00;99197.34;5076434;28;20600;-81
2024/01/11 02:24:50;;;;;;;35.80;17.97;;;;;;;-5.71;100.00;99196.50;5076897;28;20233;-79
2024/01/11 02:27:17;;;;;;;35.47;19.13;;;;;;;-5.67;100.00;99193.13;5076639;28;20235;-79
2024/01/11 02:29:43;;;;;;;42.63;19.97;;;;;;;-5.69;100.00;99197.41;5077131;28;20224;-81
2024/01/11 02:32:10;;;;;;;35.93;18.93;;;;;;;-5.73;100.00;99193.06;5076412;28;20232;-81
2024/01/11 02:34:36;;;;;;;38.20;18.30;;;;;;;-5.69;100.00;99189.69;5076812;28;20205;-81
2024/01/11 02:37:03;;;;;;;40.33;19.47;;;;;;;-5.67;100.00;99203.44;5076547;28;20598;-81
2024/01/11 02:39:30;;;;;;;34.50;17.00;;;;;;;-5.65;100.00;99206.88;5076528;28;20213;-81
2024/01/11 02:41:58;;;;;;;40.77;19.10;;;;;;;-5.67;100.00;99198.28;5076072;28;20417;-80
2024/01/11 02:44:25;;;;;;;36.47;18.43;;;;;;;-5.69;100.00;99203.41;5076564;28;20232;-80
2024/01/11 02:46:51;;;;;;;38.20;19.13;;;;;;;-5.69;100.00;99202.56;5076096;28;20591;-80
2024/01/11 02:49:18;;;;;;;37.97;20.27;;;;;;;-5.68;100.00;99201.72;5076888;28;20207;-81
2024/01/11 02:51:45;;;;;;;38.17;19.17;;;;;;;-5.66;100.00;99194.84;5076020;28;20232;-80
2024/01/11 02:54:11;;;;;;;38.97;20.07;;;;;;;-5.63;100.00;99185.47;5075054;28;20216;-79
2024/01/11 02:56:38;;;;;;;37.20;18.73;;;;;;;-5.54;100.00;99184.69;5075475;28;20691;-80
2024/01/11 02:59:05;;;;;;;38.07;19.20;;;;;;;-5.62;100.00;99187.19;5074326;28;20209;-79
2024/01/11 03:01:32;;;;;;;35.53;17.60;;;;;;;-5.69;100.00;99184.53;5073645;28;20239;-79
2024/01/11 03:03:59;;;;;;;34.83;19.57;;;;;;;-5.58;100.00;99188.06;5074193;28;20239;-79
2024/01/11 03:06:24;;;;;;;38.73;19.33;;;;;;;-5.59;100.00;99192.38;5073930;28;20700;-81
2024/01/11 03:08:51;;;;;;;36.30;18.53;;;;;;;-5.67;100.00;99188.00;5074190;28;20207;-79
2024/01/11 03:11:17;;;;;;;38.00;19.20;;;;;;;-5.55;100.00;99183.81;5074240;28;20235;-81
2024/01/11 03:13:44;;;;;;;36.00;18.30;;;;;;;-5.49;100.00;99180.47;5074854;28;20202;-81
2024/01/11 03:16:12;;;;;;;35.77;19.53;;;;;;;-5.63;100.00;99180.31;5073915;28;20228;-80
2024/01/11 03:18:39;;;;;;;35.53;19.03;;;;;;;-5.67;100.00;99172.53;5074960;28;20220;-81
2024/01/11 03:21:05;;;;;;;35.37;17.80;;;;;;;-5.60;100.00;99174.31;5075266;28;20208;-80
2024/01/11 03:23:31;;;;;;;38.63;19.17;;;;;;;-5.59;100.00;99181.19;5074267;28;20240;-81
2024/01/11 03:25:58;;;;;;;34.77;19.20;;;;;;;-5.56;100.00;99176.94;5074707;28;20215;-81
2024/01/11 03:28:24;;;;;;;39.37;18.67;;;;;;;-5.67;100.00;99175.97;5074902;28;20210;-81
2024/01/11 03:30:51;;;;;;;38.33;19.57;;;;;;;-5.72;100.00;99180.22;5073845;28;20207;-81
2024/01/11 03:33:19;;;;;;;37.33;19.27;;;;;;;-5.73;100.00;99177.63;5074970;28;20213;-81
2024/01/11 03:35:46;;;;;;;37.37;18.00;;;;;;;-5.73;100.00;99167.31;5074133;28;20615;-80
2024/01/11 03:38:12;;;;;;;30.27;17.37;;;;;;;-5.77;100.00;99173.28;5074382;28;20214;-80
2024/01/11 03:40:39;;;;;;;33.47;18.60;;;;;;;-5.83;100.00;99170.66;5074683;28;20214;-81
2024/01/11 03:43:05;;;;;;;38.05;17.60;;;;;;;-5.84;100.00;99168.94;5074096;28;20224;-80
2024/01/11 03:45:32;;;;;;;33.10;16.10;;;;;;;-5.89;100.00;99168.91;5073959;28;20591;-79
2024/01/11 03:47:58;;;;;;;40.17;18.03;;;;;;;-5.90;100.00;99174.91;5073301;28;20217;-80
2024/01/11 03:50:26;;;;;;;38.10;18.67;;;;;;;-5.86;100.00;99170.66;5073550;28;20211;-81
2024/01/11 03:52:53;;;;;;;35.90;18.80;;;;;;;-5.82;100.00;99167.25;5073057;28;20237;-82
2024/01/11 03:55:19;;;;;;;38.23;20.23;;;;;;;-5.87;100.00;99164.63;5073279;28;20200;-81
2024/01/11 03:57:46;;;;;;;38.33;18.60;;;;;;;-5.88;100.00;99165.47;5072650;28;20208;-80
2024/01/11 04:00:14;;;;;;;39.20;20.00;;;;;;;-5.85;100.00;99164.66;5072814;28;20217;-80
2024/01/11 04:02:40;;;;;;;37.43;17.80;;;;;;;-5.83;100.00;99161.25;5073168;28;20237;-80
2024/01/11 04:05:07;;;;;;;33.87;16.70;;;;;;;-5.81;100.00;99154.41;5072760;28;20229;-81
2024/01/11 04:07:35;;;;;;;37.13;19.40;;;;;;;-5.84;100.00;99158.66;5073225;28;20215;-79
2024/01/11 04:10:02;;;;;;;38.87;19.30;;;;;;;-5.85;100.00;99156.94;5073041;28;20208;-80
2024/01/11 04:12:28;;;;;;;41.77;19.83;;;;;;;-5.88;100.00;99154.31;5072957;28;20609;-81
2024/01/11 04:14:55;;;;;;;39.63;21.47;;;;;;;-5.93;100.00;99158.56;5073279;28;20215;-80
2024/01/11 04:17:24;;;;;;;42.90;19.20;;;;;;;-5.96;100.00;99153.34;5072783;28;20207;-81
2024/01/11 04:19:50;;;;;;;38.67;18.37;;;;;;;-5.92;100.00;99165.44;5073363;28;20225;-81
2024/01/11 04:22:17;;;;;;;41.80;19.30;;;;;;;-5.97;100.00;99167.06;5073172;28;20227;-79
2024/01/11 04:24:45;;;;;;;33.03;17.03;;;;;;;-6.04;100.00;99173.84;5072738;28;20236;-79
2024/01/11 04:27:11;;;;;;;38.73;19.63;;;;;;;-6.05;100.00;99169.56;5072521;28;20623;-81
2024/01/11 04:29:38;;;;;;;36.07;17.80;;;;;;;-6.10;100.00;99165.22;5072821;28;20303;-79
2024/01/11 04:32:05;;;;;;;37.47;17.67;;;;;;;-6.13;100.00;99162.59;5073156;28;20713;-80
2024/01/11 04:34:31;;;;;;;33.37;18.33;;;;;;;-6.16;100.00;99165.97;5073336;28;20202;-79
2024/01/11 04:36:58;;;;;;;37.20;18.93;;;;;;;-6.13;100.00;99171.19;5072861;28;20216;-80
2024/01/11 04:39:24;;;;;;;35.40;18.20;;;;;;;-6.13;100.00;99170.28;5073058;28;20693;-80
2024/01/11 04:41:52;;;;;;;37.10;18.73;;;;;;;-6.17;100.00;99163.41;5073217;28;20235;-79
2024/01/11 04:44:19;;;;;;;40.63;21.10;;;;;;;-6.23;100.00;99158.19;5072482;28;20228;-79
2024/01/11 04:46:45;;;;;;;36.37;18.93;;;;;;;-6.23;100.00;99158.19;5072253;28;20302;-79
2024/01/11 04:49:12;;;;;;;37.07;18.57;;;;;;;-6.19;100.00;99165.06;5072815;28;20207;-79
2024/01/11 04:51:38;;;;;;;35.73;18.23;;;;;;;-6.19;100.00;99165.06;5073404;28;20236;-80
2024/01/11 04:54:05;;;;;;;35.90;18.00;;;;;;;-6.19;100.00;99165.97;5073728;28;20290;-81
2024/01/11 04:56:31;;;;;;;45.73;21.03;;;;;;;-6.20;100.00;99164.22;5074096;28;20226;-80
2024/01/11 04:58:59;;;;;;;34.13;18.30;;;;;;;-6.13;100.00;99162.59;5075039;28;20641;-80
2024/01/11 05:01:26;;;;;;;48.17;21.87;;;;;;;-6.09;100.00;99162.66;5074568;28;20299;-80
2024/01/11 05:03:52;;;;;;;38.93;18.77;;;;;;;-6.10;100.00;99165.22;5074765;28;20238;-80
2024/01/11 05:06:20;;;;;;;34.93;19.07;;;;;;;-6.17;100.00;99163.41;5074452;28;20207;-80
2024/01/11 05:08:47;;;;;;;47.93;19.73;;;;;;;-6.21;100.00;99161.63;5074413;28;20224;-80
2024/01/11 05:11:18;;;;;;;44.80;20.17;;;;;;;-6.17;100.00;99158.25;5074240;28;20238;-80
2024/01/11 05:13:48;;;;;;;38.30;19.63;;;;;;;-6.12;100.00;99172.91;5074850;28;20682;-80
2024/01/11 05:16:24;;;;;;;40.90;19.13;;;;;;;-6.05;100.00;99179.84;5074726;28;20208;-79
2024/01/11 05:18:50;;;;;;;35.17;18.63;;;;;;;-6.16;100.00;99180.56;5078709;28;20220;-80
2024/01/11 05:21:17;;;;;;;36.40;18.70;;;;;;;-6.04;100.00;99181.56;5078860;28;20248;-81
2024/01/11 05:23:44;;;;;;;36.90;18.60;;;;;;;-5.91;100.00;99177.44;5079452;28;20208;-80
2024/01/11 05:26:10;;;;;;;48.67;20.23;;;;;;;-5.78;100.00;99184.41;5078616;28;20671;-80
2024/01/11 05:28:38;;;;;;;41.17;19.07;;;;;;;-5.76;100.00;99187.88;5080293;28;20208;-80
2024/01/11 05:31:08;;;;;;;49.93;18.80;;;;;;;-5.82;100.00;99187.84;5078396;28;20220;-79
2024/01/11 05:33:36;;;;;;;33.03;16.17;;;;;;;-6.00;100.00;99201.34;5075888;28;20209;-79
2024/01/11 05:36:03;;;;;;;35.00;19.30;;;;;;;-6.10;100.00;99196.94;5076398;28;20219;-79
2024/01/11 05:38:29;;;;;;;44.40;18.40;;;;;;;-6.20;100.00;99202.81;5076234;28;20208;-80
2024/01/11 05:40:56;;;;;;;34.97;17.80;;;;;;;-6.23;100.00;99194.19;5076635;28;20213;-79
2024/01/11 05:43:23;;;;;;;36.90;18.13;;;;;;;-6.18;100.00;99198.53;5076195;28;20214;-79
2024/01/11 05:45:51;;;;;;;36.03;18.33;;;;;;;-6.19;100.00;99198.53;5075350;28;20224;-79
2024/01/11 05:48:18;;;;;;;37.97;18.53;;;;;;;-6.21;100.00;99205.38;5075560;28;20216;-79
2024/01/11 05:50:46;;;;;;;38.40;18.97;;;;;;;-6.07;100.00;99208.97;5075790;28;20686;-79
2024/01/11 05:53:13;;;;;;;34.70;17.97;;;;;;;-5.94;100.00;99210.84;5075947;28;20224;-80
2024/01/11 05:55:40;;;;;;;39.77;18.77;;;;;;;-5.95;100.00;99224.56;5075617;28;20201;-80
2024/01/11 05:58:09;;;;;;;36.83;18.10;;;;;;;-5.81;100.00;99235.91;5075702;28;20223;-80
2024/01/11 06:00:36;;;;;;;35.80;17.73;;;;;;;-5.82;100.00;99218.72;5075704;28;20204;-80
2024/01/11 06:03:09;;;;;;;44.57;19.33;;;;;;;-5.86;100.00;99235.00;5075530;28;20240;-79
2024/01/11 06:05:35;;;;;;;37.97;19.27;;;;;;;-5.95;100.00;99227.13;5075229;28;20225;-79
2024/01/11 06:08:03;;;;;;;44.90;19.67;;;;;;;-5.93;100.00;99220.31;5075472;28;20204;-79
2024/01/11 06:10:30;;;;;;;36.23;17.73;;;;;;;-5.92;100.00;99224.63;5075392;28;20214;-80
2024/01/11 06:12:57;;;;;;;40.60;18.03;;;;;;;-5.94;100.00;99226.28;5075521;28;20243;-79
2024/01/11 06:15:24;;;;;;;35.13;17.10;;;;;;;-5.96;100.00;99220.28;5075560;28;20210;-81
2024/01/11 06:17:50;;;;;;;34.60;18.20;;;;;;;-5.94;100.00;99223.72;5076178;28;20235;-79
2024/01/11 06:20:17;;;;;;;40.73;18.43;;;;;;;-5.95;100.00;99222.00;5075783;28;20671;-79
2024/01/11 06:22:43;;;;;;;38.50;18.77;;;;;;;-6.00;100.00;99210.78;5075971;28;20228;-81
2024/01/11 06:25:11;;;;;;;37.80;16.83;;;;;;;-6.11;100.00;99212.38;5075773;28;20232;-79
2024/01/11 06:27:37;;;;;;;38.97;18.27;;;;;;;-6.17;100.00;99210.56;5076027;28;20561;-81
2024/01/11 06:30:06;;;;;;;39.20;18.23;;;;;;;-6.10;100.00;99211.53;5075310;28;20220;-80
2024/01/11 06:32:33;;;;;;;37.13;18.37;;;;;;;-5.97;100.00;99223.69;5075942;28;20237;-80
2024/01/11 06:35:00;;;;;;;38.40;18.27;;;;;;;-6.12;100.00;99224.34;5074955;28;20215;-79
2024/01/11 06:37:26;;;;;;;42.50;19.40;;;;;;;-6.19;100.00;99214.84;5075070;28;20564;-79
2024/01/11 06:39:53;;;;;;;36.57;18.40;;;;;;;-6.16;100.00;99211.44;5075439;28;20216;-79
2024/01/11 06:42:21;;;;;;;40.57;18.13;;;;;;;-6.27;100.00;99220.72;5074545;28;20745;-79
2024/01/11 06:44:49;;;;;;;32.30;18.00;;;;;;;-6.31;100.00;99221.50;5074721;28;20225;-79
2024/01/11 06:47:16;;;;;;;35.13;16.50;;;;;;;-6.33;100.00;99228.34;5074583;28;20207;-79
2024/01/11 06:49:42;;;;;;;36.37;19.20;;;;;;;-6.27;100.00;99229.31;5074663;28;20200;-78
2024/01/11 06:52:09;;;;;;;37.40;19.23;;;;;;;-6.26;100.00;99225.88;5074674;28;20709;-79
2024/01/11 06:54:35;;;;;;;39.83;19.17;;;;;;;-6.26;100.00;99230.16;5074433;28;20208;-79
2024/01/11 06:57:02;;;;;;;49.23;19.63;;;;;;;-6.18;100.00;99228.56;5074474;28;20208;-79
2024/01/11 06:59:30;;;;;;;36.70;18.03;;;;;;;-6.20;100.00;99236.25;5074823;28;20224;-78
2024/01/11 07:01:56;;;;;;;40.47;19.53;;;;;;;-6.03;100.00;99254.50;5073896;28;20244;-79
2024/01/11 07:04:23;;;;;;;42.27;19.07;;;;;;;-6.19;100.00;99249.97;5073568;28;20237;-79
2024/01/11 07:06:49;;;;;;;48.67;21.87;;;;;;;-6.14;100.00;99250.91;5073862;28;20208;-79
2024/01/11 07:09:16;;;;;;;42.10;20.67;;;;;;;-6.10;100.00;99263.81;5073474;28;20258;-79
2024/01/11 07:11:43;;;;;;;42.37;19.47;;;;;;;-6.07;100.00;99255.28;5073509;28;20278;-78
2024/01/11 07:14:09;;;;;;;54.63;29.05;;;;;;;-6.24;100.00;99259.34;5071737;28;20431;-79
2024/01/11 07:16:40;;;;;;;42.47;20.37;;;;;;;-6.25;100.00;99257.59;5071447;28;20206;-80
2024/01/11 07:19:07;;;;;;;48.87;22.67;;;;;;;-6.05;100.00;99251.03;5073246;28;20215;-80
2024/01/11 07:21:33;;;;;;;40.23;20.40;;;;;;;-6.07;100.00;99258.72;5073550;28;20232;-80
2024/01/11 07:24:00;;;;;;;38.40;20.53;;;;;;;-6.15;100.00;99264.63;5073743;28;20211;-80
2024/01/11 07:26:27;;;;;;;32.90;18.43;;;;;;;-6.21;100.00;99269.66;5074936;28;20718;-82
2024/01/11 07:28:54;;;;;;;36.43;18.10;;;;;;;-6.28;100.00;99268.72;5075889;28;20235;-79
2024/01/11 07:31:21;;;;;;;34.07;17.80;;;;;;;-6.28;100.00;99267.84;5076599;28;20504;-81
2024/01/11 07:33:50;;;;;;;37.40;19.73;;;;;;;-6.27;100.00;99264.44;5076169;28;20209;-83
2024/01/11 07:36:19;;;;;;;37.63;18.70;;;;;;;-6.28;100.00;99265.28;5078742;28;20239;-81
2024/01/11 07:38:46;;;;;;;42.67;19.97;;;;;;;-6.32;100.00;99263.50;5079130;28;20535;-80
2024/01/11 07:41:12;;;;;;;36.73;20.13;;;;;;;-6.16;100.00;99270.59;5078966;28;20224;-82
2024/01/11 07:43:39;;;;;;;40.40;20.50;;;;;;;-6.04;100.00;99284.50;5079843;28;20210;-80
2024/01/11 07:46:07;;;;;;;45.13;20.40;;;;;;;-6.00;100.00;99286.28;5080742;28;20234;-81
2024/01/11 07:48:34;;;;;;;45.23;21.73;;;;;;;-6.03;100.00;99280.22;5079737;28;20222;-80
2024/01/11 07:51:02;;;;;;;42.20;19.33;;;;;;;-5.96;100.00;99297.47;5075564;28;20205;-79
2024/01/11 07:53:29;;;;;;;45.07;22.57;;;;;;;-5.85;100.00;99301.06;5077824;28;20268;-80
2024/01/11 07:55:55;;;;;;;49.77;22.07;;;;;;;-5.72;100.00;99310.63;5077692;28;20200;-80
2024/01/11 07:58:22;;;;;;;45.50;20.37;;;;;;;-5.67;100.00;99307.25;5076969;28;20638;-80
2024/01/11 08:00:49;;;;;;;42.37;19.30;;;;;;;-5.66;100.00;99324.47;5078219;28;20307;-80
2024/01/11 08:03:15;;;;;;;39.57;17.67;;;;;;;-5.77;100.00;99314.84;5077608;28;20249;-77
2024/01/11 08:05:44;;;;;;;39.53;18.30;;;;;;;-5.90;100.00;99313.00;5077064;28;20232;-81
2024/01/11 08:08:11;;;;;;;36.80;17.13;;;;;;;-6.02;100.00;99323.13;5078736;28;20233;-79
2024/01/11 08:10:37;;;;;;;33.87;18.40;;;;;;;-6.09;100.00;99326.44;5077255;28;20302;-79
2024/01/11 08:13:04;;;;;;;35.67;19.20;;;;;;;-6.06;100.00;99334.19;5079890;28;20232;-80
2024/01/11 08:15:30;;;;;;;33.57;18.07;;;;;;;-5.96;100.00;99348.94;5078982;28;20623;-80
2024/01/11 08:17:57;;;;;;;40.03;19.17;;;;;;;-5.89;100.00;99340.47;5079054;28;20224;-81
2024/01/11 08:20:24;;;;;;;37.83;19.77;;;;;;;-5.76;100.00;99329.47;5079444;28;20204;-82
2024/01/11 08:22:50;;;;;;;54.35;29.98;;;;;;;-5.63;100.00;99333.94;5076351;28;20476;-79
2024/01/11 08:25:18;;;;;;;39.47;21.80;;;;;;;-5.43;100.00;99342.78;5077299;28;20232;-80
2024/01/11 08:27:45;;;;;;;45.80;20.93;;;;;;;-5.42;100.00;99344.50;5081795;28;20213;-81
2024/01/11 08:30:13;;;;;;;43.17;20.43;;;;;;;-5.41;100.00;99346.25;5079782;28;20208;-79
2024/01/11 08:32:41;;;;;;;38.10;19.60;;;;;;;-5.46;100.00;99347.88;5076711;28;20232;-78
2024/01/11 08:35:11;;;;;;;36.23;19.40;;;;;;;-5.55;100.00;99337.47;5079177;28;20209;-80
2024/01/11 08:37:37;;;;;;;37.83;18.90;;;;;;;-5.52;100.00;99337.50;5079788;28;20218;-80
2024/01/11 08:40:05;;;;;;;38.67;19.07;;;;;;;-5.49;100.00;99340.13;5079965;28;20206;-81
2024/01/11 08:42:33;;;;;;;40.03;19.13;;;;;;;-5.38;100.00;99336.00;5079851;28;20246;-80
2024/01/11 08:45:06;;;;;;;32.97;17.80;;;;;;;-5.31;100.00;99332.63;5081248;28;20234;-80
2024/01/11 08:47:33;;;;;;;42.70;20.37;;;;;;;-5.30;100.00;99330.09;5078449;28;20234;-81
2024/01/11 08:50:05;;;;;;;34.23;18.50;;;;;;;-5.20;100.00;99333.63;5081455;28;20612;-81
2024/01/11 08:52:32;;;;;;;38.07;18.80;;;;;;;-5.04;100.00;99332.94;5081247;28;20255;-80
2024/01/11 08:54:58;;;;;;;35.60;17.93;;;;;;;-5.00;100.00;99334.72;5082097;28;20218;-80
2024/01/11 08:57:25;;;;;;;39.20;20.00;;;;;;;-4.79;100.00;99340.94;5085064;28;20218;-81
2024/01/11 08:59:54;;;;;;;38.60;20.27;;;;;;;-4.82;100.00;99332.31;5083853;28;20213;-81
2024/01/11 09:02:22;;;;;;;42.87;19.83;;;;;;;-4.76;100.00;99334.97;5084206;28;20325;-81
2024/01/11 09:04:48;;;;;;;39.73;19.53;;;;;;;-4.75;100.00;99339.28;5085532;28;20576;-81
2024/01/11 09:07:17;;;;;;;39.53;19.20;;;;;;;-4.75;100.00;99347.00;5081649;28;20242;-80
2024/01/11 09:09:50;;;;;;;41.15;20.35;;;;;;;-4.75;100.00;99344.44;5080471;28;20098;-80
2024/01/11 09:12:17;;;;;;;37.57;19.23;;;;;;;-4.73;100.00;99345.28;5083809;28;20300;-81
2024/01/11 09:14:43;;;;;;;37.27;19.30;;;;;;;-4.67;100.00;99343.66;5085577;28;20211;-80
2024/01/11 09:17:11;;;;;;;39.87;19.87;;;;;;;-4.63;100.00;99358.31;5086653;28;20218;-81
2024/01/11 09:19:39;;;;;;;37.00;19.73;;;;;;;-4.65;100.00;99364.31;5087938;28;20229;-80
2024/01/11 09:22:08;;;;;;;47.40;25.38;;;;;;;-4.56;100.00;99361.81;5086094;28;20434;-78
2024/01/11 09:24:34;;;;;;;42.87;22.33;;;;;;;-4.46;100.00;99372.22;5080707;28;20677;-79
2024/01/11 09:27:01;;;;;;;41.37;20.00;;;;;;;-4.32;100.00;99360.31;5079010;28;20230;-79
2024/01/11 09:29:27;;;;;;;36.63;20.33;;;;;;;-4.34;100.00;99366.31;5079079;28;20218;-80
2024/01/11 09:31:54;;;;;;;41.63;19.97;;;;;;;-4.30;100.00;99357.72;5079041;28;20234;-79
2024/01/11 09:34:22;;;;;;;45.03;20.23;;;;;;;-4.27;100.00;99360.34;5079438;28;20305;-80
2024/01/11 09:36:49;;;;;;;44.00;19.80;;;;;;;-4.22;100.00;99362.09;5080208;28;20229;-80
2024/01/11 09:39:16;;;;;;;38.03;19.87;;;;;;;-4.19;100.00;99361.28;5077721;28;20211;-79
2024/01/11 09:41:48;;;;;;;42.40;20.63;;;;;;;-4.14;100.00;99360.47;5076123;28;20237;-79
2024/01/11 09:44:15;;;;;;;40.33;20.73;;;;;;;-4.11;100.00;99352.75;5076563;28;20209;-79
2024/01/11 09:46:42;;;;;;;39.97;20.20;;;;;;;-4.05;100.00;99359.66;5076298;28;20234;-78
2024/01/11 09:49:10;;;;;;;40.93;20.50;;;;;;;-4.01;100.00;99359.72;5078646;28;20213;-80
2024/01/11 09:51:40;;;;;;;38.80;19.67;;;;;;;-3.96;100.00;99370.06;5081018;28;20243;-80
2024/01/11 09:54:07;;;;;;;37.10;20.50;;;;;;;-3.95;100.00;99357.19;5082756;28;20209;-80
2024/01/11 09:56:35;;;;;;;35.40;19.67;;;;;;;-3.89;100.00;99356.34;5082065;28;20233;-81
2024/01/11 09:59:04;;;;;;;38.80;19.50;;;;;;;-3.84;100.00;99362.41;5082289;28;20208;-83
2024/01/11 10:01:32;;;;;;;39.30;20.03;;;;;;;-3.85;100.00;99352.94;5081775;28;20246;-80
2024/01/11 10:03:59;;;;;;;40.83;20.67;;;;;;;-3.85;100.00;99358.09;5080782;28;20219;-77
2024/01/11 10:06:27;;;;;;;41.73;22.07;;;;;;;-3.77;100.00;99348.69;5080777;28;20226;-79
2024/01/11 10:08:54;;;;;;;37.70;19.90;;;;;;;-3.75;100.00;99339.22;5083570;28;20223;-80
2024/01/11 10:11:21;;;;;;;41.00;20.10;;;;;;;-3.71;100.00;99335.81;5083819;28;20235;-79
2024/01/11 10:13:47;;;;;;;32.07;18.73;;;;;;;-3.76;100.00;99333.19;5084906;28;20216;-79
2024/01/11 10:16:15;;;;;;;42.43;20.57;;;;;;;-3.74;100.00;99330.63;5081681;28;20927;-80
2024/01/11 10:18:42;;;;;;;38.77;19.53;;;;;;;-3.55;100.00;99317.81;5083144;28;20674;-80
2024/01/11 10:21:09;;;;;;;33.37;19.37;;;;;;;-3.48;100.00;99318.72;5081672;28;20207;-81
2024/01/11 10:23:37;;;;;;;39.53;19.63;;;;;;;-3.42;100.00;99308.41;5082203;28;20214;-80
2024/01/11 10:26:07;;;;;;;36.60;19.87;;;;;;;-3.38;100.00;99304.94;5082710;28;20230;-81
2024/01/11 10:28:37;;;;;;;35.20;18.83;;;;;;;-3.32;100.00;99304.97;5083968;28;20296;-80
2024/01/11 10:31:04;;;;;;;36.40;18.57;;;;;;;-3.37;100.00;99309.28;5082532;28;20226;-81
2024/01/11 10:33:31;;;;;;;34.07;17.67;;;;;;;-3.26;100.00;99305.00;5083894;28;20218;-82
2024/01/11 10:35:57;;;;;;;39.20;20.00;;;;;;;-3.22;100.00;99311.91;5082903;28;20221;-80
2024/01/11 10:38:26;;;;;;;35.47;18.70;;;;;;;-3.32;100.00;99315.31;5082046;28;20274;-81
2024/01/11 10:40:54;;;;;;;33.53;18.73;;;;;;;-3.34;100.00;99319.63;5081484;28;20211;-80
2024/01/11 10:43:23;;;;;;;35.90;19.80;;;;;;;-3.26;100.00;99315.34;5080451;28;20214;-78
2024/01/11 10:45:53;;;;;;;37.80;18.90;;;;;;;-3.21;100.00;99329.16;5079317;28;20223;-80
2024/01/11 10:48:22;;;;;;;39.20;20.40;;;;;;;-3.09;100.00;99324.91;5080069;28;20221;-78
2024/01/11 10:50:55;;;;;;;33.93;18.53;;;;;;;-3.00;100.00;99329.25;5082318;28;20701;-80
2024/01/11 10:53:32;;;;;;;39.93;19.20;;;;;;;-2.99;100.00;99320.63;5080300;28;20220;-80
2024/01/11 10:56:00;;;;;;;36.97;20.67;;;;;;;-2.95;100.00;99325.78;5081376;28;20264;-80
2024/01/11 10:58:28;;;;;;;35.27;19.97;;;;;;;-2.84;100.00;99333.56;5079973;28;20734;-82
2024/01/11 11:00:55;;;;;;;38.40;21.20;;;;;;;-2.71;100.00;99323.28;5080527;28;20203;-80
2024/01/11 11:03:24;;;;;;;34.90;19.33;;;;;;;-2.72;100.00;99316.38;5082496;28;20213;-80
2024/01/11 11:05:53;;;;;;;40.67;20.43;;;;;;;-2.60;100.00;99310.34;5081788;28;20320;-80
2024/01/11 11:08:20;;;;;;;38.63;19.60;;;;;;;-2.41;100.00;99310.38;5083174;28;20604;-79